Holt, Florida
Current Conditions -  °F | °C
As of 9:53 PM on Saturday 22 Nov 2014 (Local Time) from KCEW Reporting Station
Moderate Rain Moderate Rain  
Wind Chill: 61°   Ceiling: 600
Heat Index: 61°   Visibility: 4mi
Dew Point: 60°   Wind: 7mph
Humidity: 97%   Direction: 100°E
Pressure: 30.07"   Gusts: NA
Location:  30.72°N, 86.75°W
Report Text: KCEW 230353Z AUTO 10006KT 4SM RA BR OVC006 16/16 A3007 RMK AO2 CIG 004V009 SLP182 P0006 T01610156
Loading
Personal Weather Stations






























Interactive Weather Map New forecast layout! Learn more

10-Day Weather Forecast

Advertisements
Track Severe Weather on mobile